Time;durP1;ratioP1;P1;durP2;ratioP2;P2;SDS_P1;SDS_P2;PMS_P1;PMS_P2;Temp;Humidity;BMP_temperature;BMP_pressure;BME280_temperature;BME280_humidity;BME280_pressure;Samples;Min_cycle;Max_cycle;Signal;HPM_P1;HPM_P2
2021/01/07 00:01:10;;;;;;;44.70;26.13;;;;;;;2.07;87.45;99326.31;120530;1151;104925;-82
2021/01/07 00:03:40;;;;;;;50.63;29.20;;;;;;;2.04;87.55;99323.78;120586;1151;104371;-82
2021/01/07 00:06:12;;;;;;;46.37;28.33;;;;;;;2.03;87.45;99329.80;120553;1150;104319;-82
2021/01/07 00:08:40;;;;;;;44.30;27.50;;;;;;;2.01;87.41;99325.55;120542;1151;104192;-82
2021/01/07 00:11:11;;;;;;;45.30;26.43;;;;;;;1.95;86.93;99323.88;120547;1151;104402;-82
2021/01/07 00:13:39;;;;;;;44.73;26.97;;;;;;;1.91;86.98;99329.09;120485;1151;104467;-82
2021/01/07 00:16:06;;;;;;;39.73;24.63;;;;;;;1.89;87.49;99320.55;120527;1150;104901;-82
2021/01/07 00:18:33;;;;;;;45.30;26.93;;;;;;;1.87;87.23;99335.14;120599;1150;103363;-82
2021/01/07 00:21:01;;;;;;;45.83;25.77;;;;;;;1.85;86.84;99331.74;120500;1151;104457;-81
2021/01/07 00:23:28;;;;;;;41.20;24.20;;;;;;;1.83;87.03;99333.48;120565;1150;104396;-83
2021/01/07 00:25:55;;;;;;;40.67;24.13;;;;;;;1.79;87.34;99327.50;120562;1151;104332;-82
2021/01/07 00:28:24;;;;;;;38.57;23.57;;;;;;;1.80;87.24;99330.08;120614;1150;102470;-82
2021/01/07 00:30:51;;;;;;;40.83;24.67;;;;;;;1.76;87.13;99330.96;120580;1151;104456;-81
2021/01/07 00:33:19;;;;;;;40.37;22.80;;;;;;;1.71;86.99;99331.89;120507;1151;104516;-83
2021/01/07 00:35:46;;;;;;;39.03;23.40;;;;;;;1.70;86.84;99331.04;120508;1151;104494;-83
2021/01/07 00:38:14;;;;;;;40.77;23.90;;;;;;;1.70;87.15;99327.62;120652;1151;104321;-82
2021/01/07 00:40:42;;;;;;;40.45;22.07;;;;;;;1.67;86.79;99333.65;120533;1151;103915;-82
2021/01/07 00:43:09;;;;;;;37.30;21.73;;;;;;;1.64;86.84;99332.84;120537;1151;104349;-83
2021/01/07 00:45:36;;;;;;;37.67;22.60;;;;;;;1.62;86.97;99338.00;120553;1151;104436;-82
2021/01/07 00:48:04;;;;;;;38.87;23.67;;;;;;;1.60;87.03;99331.14;120549;1151;104335;-82
2021/01/07 00:50:31;;;;;;;34.83;21.27;;;;;;;1.57;86.79;99326.04;120611;1150;103273;-81
2021/01/07 00:52:59;;;;;;;35.43;21.13;;;;;;;1.57;87.04;99344.03;120602;1151;104348;-82
2021/01/07 00:55:26;;;;;;;33.83;19.97;;;;;;;1.53;87.01;99338.08;120523;1151;104395;-82
2021/01/07 00:57:56;;;;;;;27.87;18.73;;;;;;;1.52;86.77;99338.95;120516;1150;104665;-82
2021/01/07 01:00:24;;;;;;;28.27;17.70;;;;;;;1.51;87.16;99329.53;120482;1151;104473;-82
2021/01/07 01:02:51;;;;;;;27.43;17.67;;;;;;;1.50;86.97;99333.83;120569;1151;104425;-82
2021/01/07 01:05:19;;;;;;;26.50;15.20;;;;;;;1.48;86.49;99322.71;120625;1151;104454;-83
2021/01/07 01:07:46;;;;;;;26.70;16.87;;;;;;;1.45;86.61;99327.04;120549;1150;104454;-83
2021/01/07 01:10:14;;;;;;;25.23;15.67;;;;;;;1.46;86.70;99328.73;120493;1151;104431;-82
2021/01/07 01:12:41;;;;;;;26.77;16.60;;;;;;;1.42;86.62;99327.04;120563;1151;104439;-82
2021/01/07 01:15:11;;;;;;;23.70;15.03;;;;;;;1.39;86.96;99327.08;120581;1151;104354;-81
2021/01/07 01:17:39;;;;;;;23.97;15.73;;;;;;;1.38;86.73;99322.80;120553;1150;104493;-81
2021/01/07 01:20:10;;;;;;;22.13;14.37;;;;;;;1.39;86.90;99329.65;120576;1151;104854;-81
2021/01/07 01:22:39;;;;;;;23.67;15.83;;;;;;;1.38;86.93;99326.23;120546;1151;105375;-82
2021/01/07 01:25:08;;;;;;;21.53;14.70;;;;;;;1.32;86.52;99326.30;120613;1151;104406;-82
2021/01/07 01:27:36;;;;;;;20.43;13.57;;;;;;;1.28;86.88;99324.63;120585;1150;104313;-83
2021/01/07 01:30:06;;;;;;;20.93;13.43;;;;;;;1.29;86.88;99323.77;120546;1150;104394;-83
2021/01/07 01:32:44;;;;;;;23.00;14.27;;;;;;;1.31;86.92;99323.75;120571;1151;104456;-83
2021/01/07 01:35:13;;;;;;;19.33;13.17;;;;;;;1.28;86.82;99336.63;120565;1151;104450;-82
2021/01/07 01:37:42;;;;;;;21.73;14.13;;;;;;;1.27;86.78;99322.93;120544;1151;104458;-82
2021/01/07 01:40:11;;;;;;;21.53;13.40;;;;;;;1.25;86.43;99331.48;120576;1151;104306;-82
2021/01/07 01:42:38;;;;;;;21.73;13.93;;;;;;;1.20;86.32;99331.54;120652;1151;101862;-82
2021/01/07 01:45:07;;;;;;;20.80;12.47;;;;;;;1.17;86.75;99324.72;120570;1151;103132;-82
2021/01/07 01:47:34;;;;;;;24.80;15.63;;;;;;;1.15;86.87;99333.30;120515;1151;104499;-81
2021/01/07 01:50:02;;;;;;;20.30;14.23;;;;;;;1.12;86.66;99339.33;120559;1151;103044;-82
2021/01/07 01:52:31;;;;;;;22.57;14.70;;;;;;;1.10;86.73;99333.35;120543;1150;104226;-82
2021/01/07 01:54:59;;;;;;;21.70;13.93;;;;;;;1.07;86.81;99330.78;120540;1151;104352;-83
2021/01/07 01:57:30;;;;;;;22.17;13.70;;;;;;;1.05;86.95;99345.36;120573;1151;103101;-83
2021/01/07 01:59:58;;;;;;;21.97;14.33;;;;;;;1.00;86.99;99338.56;120488;1151;104345;-83
2021/01/07 02:02:26;;;;;;;20.90;12.93;;;;;;;0.96;87.14;99340.31;120575;1151;104496;-82
2021/01/07 02:04:54;;;;;;;20.30;13.00;;;;;;;0.91;87.01;99342.06;120515;1150;104490;-82
2021/01/07 02:07:24;;;;;;;23.07;14.07;;;;;;;0.89;87.48;99331.78;120517;1151;104322;-82
2021/01/07 02:09:51;;;;;;;19.30;12.97;;;;;;;0.88;87.20;99329.23;120579;1150;103138;-83
2021/01/07 02:12:20;;;;;;;21.70;13.43;;;;;;;0.88;87.37;99322.37;120503;1150;104483;-82
2021/01/07 02:14:48;;;;;;;21.00;13.40;;;;;;;0.88;87.36;99329.23;120657;1151;104352;-83
2021/01/07 02:17:16;;;;;;;19.93;12.90;;;;;;;0.86;87.29;99318.13;120610;1151;104315;-82
2021/01/07 02:19:44;;;;;;;19.57;13.10;;;;;;;0.84;87.12;99319.86;120573;1151;103913;-82
2021/01/07 02:22:12;;;;;;;19.90;13.17;;;;;;;0.84;87.24;99319.86;120631;1150;104336;-82
2021/01/07 02:24:40;;;;;;;21.23;13.50;;;;;;;0.83;87.41;99320.72;120609;1151;104301;-82
2021/01/07 02:27:10;;;;;;;19.80;13.35;;;;;;;0.83;87.40;99325.86;120588;1151;104318;-82
2021/01/07 02:29:38;;;;;;;19.03;12.90;;;;;;;0.81;87.59;99319.89;120565;1151;104332;-82
2021/01/07 02:32:06;;;;;;;21.80;14.23;;;;;;;0.79;87.52;99319.05;120671;1151;101901;-83
2021/01/07 02:34:35;;;;;;;20.30;12.70;;;;;;;0.80;87.41;99316.47;120673;1150;104407;-83
2021/01/07 02:37:03;;;;;;;23.63;15.33;;;;;;;0.78;87.52;99330.19;120506;1150;104319;-81
2021/01/07 02:39:30;;;;;;;22.00;15.13;;;;;;;0.76;87.44;99325.06;120478;1151;104396;-81
2021/01/07 02:41:57;;;;;;;22.00;13.63;;;;;;;0.75;87.76;99322.52;120503;1150;106108;-81
2021/01/07 02:44:25;;;;;;;20.27;14.03;;;;;;;0.74;87.79;99338.77;120548;1151;104352;-82
2021/01/07 02:46:53;;;;;;;21.10;14.33;;;;;;;0.73;87.76;99326.80;120663;1151;103809;-82
2021/01/07 02:49:21;;;;;;;20.30;13.53;;;;;;;0.73;87.84;99331.94;120543;1150;103770;-82
2021/01/07 02:51:48;;;;;;;22.15;14.50;;;;;;;0.72;88.00;99335.34;120620;1151;104452;-83
2021/01/07 02:54:16;;;;;;;24.30;15.10;;;;;;;0.72;87.92;99330.20;120542;1150;103098;-83
2021/01/07 02:56:43;;;;;;;21.15;13.50;;;;;;;0.70;88.14;99330.22;120572;1151;104448;-82
2021/01/07 02:59:11;;;;;;;23.13;15.17;;;;;;;0.70;87.79;99319.10;120594;1151;104446;-82
2021/01/07 03:01:38;;;;;;;24.17;14.10;;;;;;;0.70;87.75;99327.66;120518;1150;103110;-82
2021/01/07 03:04:06;;;;;;;21.23;13.87;;;;;;;0.70;87.91;99314.82;120538;1151;104419;-82
2021/01/07 03:06:33;;;;;;;24.43;13.73;;;;;;;0.70;87.89;99319.10;120552;1151;104343;-82
2021/01/07 03:09:00;;;;;;;25.90;15.80;;;;;;;0.71;88.04;99315.67;120568;1151;104420;-83
2021/01/07 03:11:27;;;;;;;19.60;13.27;;;;;;;0.75;88.07;99319.94;120682;1151;104201;-83
2021/01/07 03:13:54;;;;;;;23.50;14.47;;;;;;;0.74;87.57;99315.67;120635;1150;104441;-83
2021/01/07 03:16:21;;;;;;;23.50;14.80;;;;;;;0.74;87.46;99307.98;120526;1151;104417;-83
2021/01/07 03:18:49;;;;;;;25.53;15.80;;;;;;;0.72;87.81;99313.13;120554;1151;104317;-83
2021/01/07 03:21:16;;;;;;;22.43;14.73;;;;;;;0.73;87.63;99306.28;120536;1150;104408;-83
2021/01/07 03:23:44;;;;;;;23.60;14.87;;;;;;;0.72;87.66;99313.13;120488;1151;104571;-83
2021/01/07 03:26:13;;;;;;;25.23;14.93;;;;;;;0.73;87.74;99313.97;120557;1151;103033;-83
2021/01/07 03:28:40;;;;;;;25.60;15.70;;;;;;;0.73;87.77;99316.54;120534;1151;104393;-83
2021/01/07 03:31:08;;;;;;;25.08;15.53;;;;;;;0.74;87.57;99315.67;120620;1151;104487;-83
2021/01/07 03:33:35;;;;;;;24.57;15.70;;;;;;;0.75;87.53;99309.68;120570;1151;104314;-83
2021/01/07 03:36:04;;;;;;;25.05;16.45;;;;;;;0.75;87.46;99314.81;120509;1151;104468;-83
2021/01/07 03:38:31;;;;;;;25.50;16.17;;;;;;;0.75;87.60;99320.80;120584;1151;104390;-82
2021/01/07 03:40:58;;;;;;;26.40;16.53;;;;;;;0.76;87.63;99329.34;120583;1151;104352;-82
2021/01/07 03:43:25;;;;;;;26.85;16.45;;;;;;;0.76;87.54;99319.08;120570;1150;104381;-82
2021/01/07 03:45:52;;;;;;;25.47;15.97;;;;;;;0.79;87.65;99324.19;120539;1151;104355;-82
2021/01/07 03:48:19;;;;;;;26.70;16.50;;;;;;;0.78;87.42;99318.20;120521;1151;104324;-82
2021/01/07 03:50:46;;;;;;;25.72;15.63;;;;;;;0.78;87.65;99323.33;120645;1151;104974;-82
2021/01/07 03:53:14;;;;;;;23.77;14.90;;;;;;;0.80;87.61;99325.89;120579;1150;104332;-82
2021/01/07 03:55:41;;;;;;;23.95;14.90;;;;;;;0.83;87.37;99333.56;120590;1150;104391;-82
2021/01/07 03:58:08;;;;;;;29.70;17.37;;;;;;;0.85;87.62;99329.27;120629;1151;102413;-82
2021/01/07 04:00:35;;;;;;;27.73;16.07;;;;;;;0.86;87.71;99325.83;120508;1151;104426;-82
2021/01/07 04:03:03;;;;;;;28.50;17.73;;;;;;;0.85;87.24;99322.41;120607;1151;104326;-82
2021/01/07 04:05:30;;;;;;;28.67;18.23;;;;;;;0.84;87.26;99333.55;120598;1151;104403;-82
2021/01/07 04:07:57;;;;;;;29.50;18.27;;;;;;;0.81;87.07;99333.57;120466;1151;104952;-82
2021/01/07 04:10:24;;;;;;;27.98;16.85;;;;;;;0.79;87.29;99325.03;120634;1151;104532;-82
2021/01/07 04:12:51;;;;;;;30.77;19.30;;;;;;;0.81;87.62;99327.59;120722;1151;104388;-82
2021/01/07 04:15:18;;;;;;;28.35;17.52;;;;;;;0.81;87.38;99328.44;120599;1151;103165;-82
2021/01/07 04:17:45;;;;;;;28.03;17.77;;;;;;;0.79;87.33;99335.30;120533;1151;104332;-82
2021/01/07 04:20:12;;;;;;;28.60;17.87;;;;;;;0.79;87.52;99344.72;120539;1151;104412;-82
2021/01/07 04:22:40;;;;;;;26.57;16.47;;;;;;;0.79;87.26;99344.72;120612;1151;104732;-82
2021/01/07 04:25:08;;;;;;;27.77;17.07;;;;;;;0.79;87.48;99339.59;120607;1151;104308;-82
2021/01/07 04:27:35;;;;;;;29.00;17.97;;;;;;;0.80;87.52;99338.72;120557;1151;104428;-82
2021/01/07 04:30:05;;;;;;;29.53;18.13;;;;;;;0.79;87.24;99343.00;120532;1151;104458;-82
2021/01/07 04:32:34;;;;;;;32.57;19.37;;;;;;;0.78;87.14;99332.75;120569;1151;104192;-82
2021/01/07 04:35:03;;;;;;;33.13;20.30;;;;;;;0.79;87.35;99335.30;120605;1151;104327;-82
2021/01/07 04:37:30;;;;;;;32.70;19.37;;;;;;;0.81;87.13;99337.86;120622;1150;104558;-82
2021/01/07 04:39:57;;;;;;;27.20;16.13;;;;;;;0.85;87.59;99337.81;120662;1151;101820;-82
2021/01/07 04:42:24;;;;;;;32.43;18.87;;;;;;;0.85;87.17;99339.53;120564;1150;104429;-82
2021/01/07 04:44:51;;;;;;;29.00;17.27;;;;;;;0.85;87.33;99339.53;120559;1151;104397;-82
2021/01/07 04:47:19;;;;;;;34.40;19.90;;;;;;;0.85;87.38;99334.39;120609;1150;104321;-82
2021/01/07 04:49:47;;;;;;;33.30;19.83;;;;;;;0.85;87.30;99335.24;120644;1150;104408;-82
2021/01/07 04:52:14;;;;;;;32.73;20.13;;;;;;;0.91;87.27;99336.94;120543;1150;104372;-82
2021/01/07 04:54:42;;;;;;;33.23;19.73;;;;;;;0.93;87.21;99348.04;120526;1149;104406;-82
2021/01/07 04:57:09;;;;;;;33.30;20.27;;;;;;;0.93;87.12;99342.05;120521;1151;104512;-82
2021/01/07 04:59:36;;;;;;;34.67;21.33;;;;;;;0.97;87.07;99349.71;120574;1150;103139;-82
2021/01/07 05:02:03;;;;;;;35.37;21.13;;;;;;;0.96;87.17;99337.74;120632;1151;104522;-82
2021/01/07 05:04:30;;;;;;;32.03;19.37;;;;;;;0.95;86.90;99342.89;120635;1151;104537;-82
2021/01/07 05:06:59;;;;;;;35.53;21.70;;;;;;;0.98;87.16;99346.28;120602;1151;104372;-82
2021/01/07 05:09:26;;;;;;;34.87;20.03;;;;;;;1.01;87.15;99332.56;120603;1151;104461;-82
2021/01/07 05:11:54;;;;;;;36.55;20.85;;;;;;;1.03;87.18;99336.81;120549;1151;103751;-82
2021/01/07 05:14:21;;;;;;;33.40;19.80;;;;;;;1.06;87.00;99343.64;120547;1151;102558;-82
2021/01/07 05:16:48;;;;;;;37.27;21.73;;;;;;;1.07;86.71;99341.05;120543;1150;104132;-82
2021/01/07 05:19:16;;;;;;;37.00;21.33;;;;;;;1.12;86.77;99341.04;120547;1151;104404;-82
2021/01/07 05:21:43;;;;;;;36.30;21.85;;;;;;;1.15;86.78;99334.16;120695;1151;104814;-82
2021/01/07 05:24:11;;;;;;;37.77;21.33;;;;;;;1.19;86.60;99337.54;120570;1151;104311;-82
2021/01/07 05:26:38;;;;;;;36.70;20.80;;;;;;;1.20;86.53;99334.11;120616;1150;104319;-82
2021/01/07 05:29:06;;;;;;;36.33;22.30;;;;;;;1.21;86.43;99333.23;120584;1151;104449;-82
2021/01/07 05:31:33;;;;;;;39.53;23.17;;;;;;;1.23;86.66;99325.52;120559;1151;104345;-82
2021/01/07 05:34:00;;;;;;;36.00;21.45;;;;;;;1.21;86.30;99334.09;120568;1151;103166;-82
2021/01/07 05:36:30;;;;;;;35.87;20.97;;;;;;;1.21;85.97;99326.38;120546;1150;104293;-82
2021/01/07 05:39:08;;;;;;;36.00;20.80;;;;;;;1.20;85.88;99322.11;120551;1151;104353;-82
2021/01/07 05:41:36;;;;;;;38.83;21.70;;;;;;;1.22;86.33;99329.80;120598;1151;103267;-82
2021/01/07 05:44:08;;;;;;;34.70;21.20;;;;;;;1.24;86.14;99327.22;120560;1151;104421;-82
2021/01/07 05:46:35;;;;;;;36.27;20.77;;;;;;;1.21;85.88;99331.52;120526;1151;104342;-82
2021/01/07 05:49:03;;;;;;;34.40;21.07;;;;;;;1.20;86.08;99339.24;120615;1153;105575;-82
2021/01/07 05:51:31;;;;;;;34.07;20.07;;;;;;;1.20;86.04;99326.40;120620;1150;104378;-82
2021/01/07 05:53:59;;;;;;;33.70;18.70;;;;;;;1.19;86.18;99330.69;120550;1151;103429;-82
2021/01/07 05:56:28;;;;;;;33.47;18.90;;;;;;;1.17;85.77;99334.98;120620;1151;103707;-82
2021/01/07 05:58:56;;;;;;;29.03;17.87;;;;;;;1.16;85.63;99335.86;120649;1151;104327;-82
2021/01/07 06:01:23;;;;;;;31.53;18.50;;;;;;;1.16;85.86;99338.42;120620;1150;105001;-82
2021/01/07 06:03:53;;;;;;;29.27;18.33;;;;;;;1.16;85.41;99342.71;120589;1151;104346;-82
2021/01/07 06:06:21;;;;;;;31.77;18.93;;;;;;;1.15;85.20;99347.00;120629;1151;103191;-82
2021/01/07 06:08:55;;;;;;;27.73;18.00;;;;;;;1.14;85.54;99353.00;120571;1151;104468;-82
2021/01/07 06:11:25;;;;;;;31.00;18.33;;;;;;;1.11;85.40;99347.89;120616;1151;104328;-82
2021/01/07 06:13:54;;;;;;;28.87;17.40;;;;;;;1.07;85.46;99348.76;120641;1151;104419;-81
2021/01/07 06:16:25;;;;;;;28.80;17.60;;;;;;;1.03;85.55;99354.79;120643;1151;104320;-82
2021/01/07 06:19:31;;;;;;;27.13;15.67;;;;;;;0.98;85.45;99361.69;120587;1150;104407;-83
2021/01/07 06:22:11;;;;;;;29.00;18.13;;;;;;;0.90;85.56;99358.34;120660;1150;104330;-83
2021/01/07 06:24:39;;;;;;;31.80;18.40;;;;;;;0.92;85.49;99355.75;120621;1151;104375;-81
2021/01/07 06:27:33;;;;;;;31.73;18.37;;;;;;;0.93;85.60;99360.02;120638;1151;104416;-83
2021/01/07 06:30:07;;;;;;;29.47;17.60;;;;;;;0.92;85.40;99360.89;120632;1151;104419;-83
2021/01/07 06:32:34;;;;;;;32.17;18.90;;;;;;;0.92;85.63;99366.02;120575;1150;104386;-83
2021/01/07 06:35:07;;;;;;;31.85;18.60;;;;;;;0.97;85.60;99370.25;120577;1151;104362;-83
2021/01/07 06:37:37;;;;;;;30.40;19.73;;;;;;;1.00;85.52;99370.22;120559;1151;105139;-83
2021/01/07 06:40:07;;;;;;;34.10;19.27;;;;;;;1.03;85.91;99370.20;120673;1151;104384;-83
2021/01/07 06:42:42;;;;;;;31.10;19.03;;;;;;;1.04;85.50;99387.30;120650;1151;104418;-83
2021/01/07 06:45:12;;;;;;;35.63;18.70;;;;;;;1.04;85.36;99384.73;120646;1151;104413;-83
2021/01/07 06:47:41;;;;;;;35.67;20.83;;;;;;;1.03;85.35;99385.60;120634;1151;104248;-82
2021/01/07 06:50:09;;;;;;;34.13;19.03;;;;;;;0.99;85.34;99389.06;120650;1151;103546;-82
2021/01/07 06:52:46;;;;;;;34.87;19.97;;;;;;;0.94;85.44;99397.67;120584;1151;104407;-82
2021/01/07 06:55:16;;;;;;;32.38;19.35;;;;;;;0.96;85.71;99399.36;120602;1151;104435;-82
2021/01/07 06:57:48;;;;;;;29.57;19.07;;;;;;;0.96;85.52;99398.51;120600;1151;104386;-82
2021/01/07 07:00:20;;;;;;;33.30;19.50;;;;;;;0.94;85.51;99407.94;120597;1151;104530;-82
2021/01/07 07:03:00;;;;;;;30.27;18.77;;;;;;;0.95;85.25;99418.20;120593;1151;104404;-83
2021/01/07 07:05:33;;;;;;;32.27;20.20;;;;;;;0.96;85.33;99417.33;120582;1151;104307;-82
2021/01/07 07:08:04;;;;;;;31.00;18.20;;;;;;;0.95;85.23;99417.34;120629;1151;103048;-82
2021/01/07 07:10:34;;;;;;;31.50;19.23;;;;;;;0.90;85.22;99417.38;120623;1151;102370;-82
2021/01/07 07:13:21;;;;;;;31.40;19.13;;;;;;;0.91;85.28;99416.52;120673;1151;103517;-82
2021/01/07 07:15:49;;;;;;;32.05;18.65;;;;;;;0.91;85.07;99416.52;120517;1151;104451;-82
2021/01/07 07:18:35;;;;;;;36.80;21.70;;;;;;;0.91;85.55;99416.52;120571;1151;104809;-82
2021/01/07 07:21:24;;;;;;;22.05;14.23;;;;;;;0.95;85.40;99425.05;120670;1150;104320;-82
2021/01/07 07:23:56;;;;;;;33.20;20.20;;;;;;;0.96;85.50;99429.31;120617;1150;104510;-82
2021/01/07 07:26:39;;;;;;;31.87;19.33;;;;;;;0.98;85.48;99425.02;120559;1150;104567;-81
2021/01/07 07:29:13;;;;;;;31.90;19.13;;;;;;;1.01;85.46;99427.56;120617;1149;104329;-82
2021/01/07 07:31:46;;;;;;;31.63;20.00;;;;;;;1.02;85.05;99432.69;120690;1151;104342;-82
2021/01/07 07:34:26;;;;;;;33.47;20.67;;;;;;;1.03;85.37;99431.82;120690;1151;104420;-80
2021/01/07 07:36:53;;;;;;;33.50;20.33;;;;;;;1.03;85.46;99430.97;120641;1151;104423;-82
2021/01/07 07:39:26;;;;;;;31.40;18.87;;;;;;;1.01;85.22;99432.70;120616;1150;104517;-82
2021/01/07 07:42:08;;;;;;;32.77;20.40;;;;;;;1.01;85.31;99433.55;120633;1151;104361;-83
2021/01/07 07:44:35;;;;;;;30.55;19.40;;;;;;;0.99;85.10;99437.00;120642;1151;104423;-82
2021/01/07 07:47:03;;;;;;;30.50;19.60;;;;;;;0.99;85.32;99442.98;120651;1151;102178;-82
2021/01/07 07:49:30;;;;;;;33.47;20.73;;;;;;;1.02;85.36;99442.11;120627;1153;104998;-81
2021/01/07 07:51:57;;;;;;;34.13;21.07;;;;;;;1.07;85.58;99443.77;120621;1150;104434;-81
2021/01/07 07:54:24;;;;;;;30.07;19.13;;;;;;;1.07;85.04;99438.63;120629;1151;104461;-81
2021/01/07 07:57:00;;;;;;;31.37;20.10;;;;;;;1.08;85.13;99442.09;120610;1150;104466;-82
2021/01/07 07:59:34;;;;;;;32.47;19.23;;;;;;;1.07;84.86;99440.35;120592;1150;104402;-82
2021/01/07 08:02:01;;;;;;;30.67;19.23;;;;;;;1.06;84.94;99446.34;120594;1150;104416;-82
2021/01/07 08:04:29;;;;;;;31.03;19.77;;;;;;;1.05;85.15;99439.52;120522;1150;104465;-82
2021/01/07 08:06:56;;;;;;;31.70;20.10;;;;;;;1.07;85.23;99448.91;120559;1151;104469;-82
2021/01/07 08:09:25;;;;;;;31.82;19.65;;;;;;;1.05;84.72;99447.22;120560;1151;104427;-83
2021/01/07 08:11:53;;;;;;;33.90;21.10;;;;;;;1.06;85.02;99451.48;120565;1151;104520;-83
2021/01/07 08:14:24;;;;;;;33.33;18.90;;;;;;;1.08;85.14;99449.79;120539;1151;104402;-82
2021/01/07 08:16:58;;;;;;;35.27;20.43;;;;;;;1.07;85.15;99453.19;120519;1151;104515;-82
2021/01/07 08:19:32;;;;;;;33.10;19.77;;;;;;;1.10;84.91;99453.20;120566;1150;104188;-82
2021/01/07 08:22:00;;;;;;;38.33;20.40;;;;;;;1.11;84.88;99455.75;120611;1151;104397;-82
2021/01/07 08:24:27;;;;;;;34.10;20.33;;;;;;;1.14;85.19;99455.73;120529;1150;104481;-82
2021/01/07 08:27:02;;;;;;;35.27;21.30;;;;;;;1.16;85.17;99454.00;120584;1151;103827;-82
2021/01/07 08:29:33;;;;;;;34.00;22.00;;;;;;;1.20;85.17;99460.81;120492;1151;103244;-82
2021/01/07 08:32:03;;;;;;;32.70;19.50;;;;;;;1.22;85.09;99458.23;120629;1151;104462;-82
2021/01/07 08:34:32;;;;;;;32.07;20.27;;;;;;;1.19;85.12;99458.25;120586;1151;104421;-83
2021/01/07 08:37:11;;;;;;;32.10;19.60;;;;;;;1.19;85.22;99459.11;120630;1150;104317;-82
2021/01/07 08:39:41;;;;;;;32.60;18.77;;;;;;;1.20;85.08;99462.53;120610;1151;104551;-82
2021/01/07 08:42:09;;;;;;;30.50;18.55;;;;;;;1.19;85.13;99464.24;120486;1150;104401;-82
2021/01/07 08:44:37;;;;;;;30.57;19.27;;;;;;;1.20;84.99;99465.95;120669;1151;104340;-82
2021/01/07 08:47:20;;;;;;;28.50;18.03;;;;;;;1.22;84.95;99460.80;120528;1151;104516;-81
2021/01/07 08:49:59;;;;;;;32.13;19.20;;;;;;;1.19;84.69;99464.24;120605;1151;104420;-81
2021/01/07 08:52:26;;;;;;;29.60;17.90;;;;;;;1.18;84.86;99459.97;120538;1150;104456;-81
2021/01/07 08:54:54;;;;;;;32.70;18.75;;;;;;;1.19;84.90;99461.67;120510;1153;103066;-81
2021/01/07 08:57:21;;;;;;;29.20;19.30;;;;;;;1.24;84.99;99463.35;120598;1151;104380;-82
2021/01/07 08:59:48;;;;;;;30.67;19.53;;;;;;;1.24;85.16;99458.22;120589;1150;104432;-82
2021/01/07 09:02:19;;;;;;;32.33;19.87;;;;;;;1.27;84.83;99460.78;120601;1151;104439;-82
2021/01/07 09:04:52;;;;;;;30.53;19.80;;;;;;;1.28;84.89;99462.49;120676;1153;104372;-81
2021/01/07 09:07:22;;;;;;;28.83;17.70;;;;;;;1.29;84.61;99459.05;120524;1150;104378;-81
2021/01/07 09:09:57;;;;;;;28.87;18.67;;;;;;;1.28;84.66;99463.34;120615;1148;102338;-81
2021/01/07 09:12:26;;;;;;;29.00;18.53;;;;;;;1.28;84.50;99463.34;120675;1150;103169;-81
2021/01/07 09:15:04;;;;;;;31.85;19.45;;;;;;;1.32;84.86;99453.89;120704;1150;104413;-81
2021/01/07 09:17:52;;;;;;;26.70;17.90;;;;;;;1.33;84.31;99463.30;120658;1151;104398;-81
2021/01/07 09:20:28;;;;;;;30.50;18.53;;;;;;;1.35;84.82;99459.00;120563;1150;104327;-81
2021/01/07 09:23:16;;;;;;;29.67;19.23;;;;;;;1.40;84.83;99464.95;120565;1151;104429;-81
2021/01/07 09:25:44;;;;;;;31.37;19.10;;;;;;;1.43;84.74;99458.06;120600;1151;104307;-81
2021/01/07 09:28:12;;;;;;;30.60;18.50;;;;;;;1.45;84.64;99456.36;120709;1150;104355;-82
2021/01/07 09:30:39;;;;;;;24.23;16.07;;;;;;;1.45;84.25;99460.65;120517;1151;104611;-82
2021/01/07 09:33:06;;;;;;;27.90;17.43;;;;;;;1.45;84.04;99452.94;120529;1150;104530;-82
2021/01/07 09:35:35;;;;;;;29.37;19.63;;;;;;;1.45;84.48;99455.51;120581;1151;104313;-82
2021/01/07 09:38:02;;;;;;;29.70;18.00;;;;;;;1.45;84.53;99453.80;120603;1151;104322;-82
2021/01/07 09:40:29;;;;;;;27.80;18.53;;;;;;;1.46;84.32;99452.08;120603;1151;104516;-82
2021/01/07 09:42:57;;;;;;;28.45;17.15;;;;;;;1.44;84.28;99449.52;120601;1150;104473;-82
2021/01/07 09:45:24;;;;;;;29.63;18.27;;;;;;;1.44;84.06;99454.66;120602;1151;103038;-81
2021/01/07 09:47:51;;;;;;;32.20;18.63;;;;;;;1.44;84.15;99444.38;120689;1150;104378;-81
2021/01/07 09:50:20;;;;;;;31.15;18.70;;;;;;;1.45;84.11;99452.94;120639;1151;104898;-82
2021/01/07 09:52:48;;;;;;;29.13;18.70;;;;;;;1.45;83.89;99445.23;120704;1151;103074;-81
2021/01/07 09:55:15;;;;;;;32.45;19.67;;;;;;;1.47;84.22;99441.78;120634;1151;104319;-81
2021/01/07 09:57:48;;;;;;;31.47;19.67;;;;;;;1.50;84.38;99443.47;120604;1151;104517;-81
2021/01/07 10:00:16;;;;;;;28.37;18.70;;;;;;;1.53;84.26;99442.58;120662;1150;104343;-82
2021/01/07 10:02:43;;;;;;;30.17;18.63;;;;;;;1.54;84.06;99445.14;120647;1150;104439;-82
2021/01/07 10:05:12;;;;;;;28.27;17.17;;;;;;;1.59;83.78;99445.94;120638;1151;104817;-82
2021/01/07 10:07:40;;;;;;;27.75;17.05;;;;;;;1.63;84.08;99450.22;120676;1151;103185;-82
2021/01/07 10:10:08;;;;;;;26.30;16.67;;;;;;;1.67;84.18;99438.18;120552;1151;104465;-82
2021/01/07 10:12:35;;;;;;;26.57;17.70;;;;;;;1.70;83.64;99438.15;120598;1150;104322;-81
2021/01/07 10:15:02;;;;;;;28.00;17.23;;;;;;;1.72;83.79;99437.27;120573;1151;104323;-82
2021/01/07 10:17:30;;;;;;;28.30;17.83;;;;;;;1.74;83.59;99422.67;120616;1150;104529;-82
2021/01/07 10:19:57;;;;;;;28.50;17.80;;;;;;;1.80;84.09;99424.36;120567;1153;103091;-82
2021/01/07 10:22:29;;;;;;;28.80;18.40;;;;;;;1.89;83.79;99418.25;120523;1151;104421;-82
2021/01/07 10:24:57;;;;;;;29.30;17.67;;;;;;;1.99;83.79;99417.30;120633;1151;104461;-82
2021/01/07 10:27:29;;;;;;;27.83;16.57;;;;;;;2.01;83.63;99421.55;120566;1151;104348;-82
2021/01/07 10:29:59;;;;;;;25.90;16.73;;;;;;;2.02;83.32;99428.40;120630;1151;104376;-82
2021/01/07 10:32:27;;;;;;;26.13;15.50;;;;;;;2.03;83.23;99424.96;120604;1150;104514;-82
2021/01/07 10:34:54;;;;;;;21.33;13.83;;;;;;;1.99;83.00;99423.30;120607;1150;104344;-83
2021/01/07 10:37:23;;;;;;;21.50;13.60;;;;;;;1.93;82.91;99430.20;120611;1151;104455;-83
2021/01/07 10:39:53;;;;;;;22.07;13.77;;;;;;;1.89;82.68;99424.25;120560;1150;104195;-82
2021/01/07 10:42:23;;;;;;;25.20;15.77;;;;;;;1.89;83.15;99429.39;120673;1148;102740;-83
2021/01/07 10:44:52;;;;;;;24.63;14.37;;;;;;;1.88;82.71;99429.41;120610;1151;103195;-82
2021/01/07 10:47:20;;;;;;;21.50;14.37;;;;;;;1.87;82.75;99437.98;120585;1151;104400;-82
2021/01/07 10:49:47;;;;;;;23.37;14.47;;;;;;;1.83;82.49;99436.32;120578;1151;105007;-82
2021/01/07 10:52:27;;;;;;;24.13;15.07;;;;;;;1.80;82.96;99430.34;120532;1151;104332;-84
2021/01/07 10:55:29;;;;;;;22.27;14.30;;;;;;;1.79;83.16;99433.75;120758;1150;104409;-81
2021/01/07 10:58:26;;;;;;;20.93;14.37;;;;;;;1.81;82.96;99434.63;120570;1151;104377;-83
2021/01/07 11:01:15;;;;;;;21.97;14.33;;;;;;;1.79;82.62;99441.47;120548;1150;104406;-83
2021/01/07 11:03:54;;;;;;;20.97;13.70;;;;;;;1.79;82.69;99433.75;120573;1151;104780;-83
2021/01/07 11:06:26;;;;;;;20.60;13.83;;;;;;;1.77;83.09;99438.06;120726;1151;104420;-83
2021/01/07 11:09:02;;;;;;;21.80;13.97;;;;;;;1.77;82.90;99438.06;120656;1151;104449;-83
2021/01/07 11:11:35;;;;;;;24.30;15.28;;;;;;;1.78;82.96;99438.91;120617;1151;104344;-83
2021/01/07 11:14:27;;;;;;;26.03;16.30;;;;;;;1.77;82.51;99438.06;120539;1151;104413;-83
2021/01/07 11:17:05;;;;;;;29.23;17.70;;;;;;;1.76;82.73;99438.93;120506;1151;104412;-83
2021/01/07 11:19:34;;;;;;;25.40;16.37;;;;;;;1.74;82.56;99432.95;120572;1151;104419;-83
2021/01/07 11:22:07;;;;;;;30.63;19.07;;;;;;;1.74;82.83;99425.24;120588;1151;104431;-83